Time;durP1;ratioP1;P1;durP2;ratioP2;P2;SDS_P1;SDS_P2;PMS_P1;PMS_P2;Temp;Humidity;BMP_temperature;BMP_pressure;BME280_temperature;BME280_humidity;BME280_pressure;Samples;Min_cycle;Max_cycle;Signal;HPM_P1;HPM_P2
2022/07/24 00:01:32;;;;;;;9.02;4.35;;;23.30;98.90;;;;;;5032485;28;20029;-74
2022/07/24 00:03:58;;;;;;;7.10;4.75;;;23.30;98.90;;;;;;5033038;28;20124;-74
2022/07/24 00:06:24;;;;;;;6.40;4.25;;;23.40;98.90;;;;;;5032706;28;20045;-74
2022/07/24 00:08:50;;;;;;;9.05;4.30;;;23.20;99.30;;;;;;5032713;28;20480;-74
2022/07/24 00:11:16;;;;;;;6.82;4.53;;;23.10;99.40;;;;;;5032421;28;20471;-74
2022/07/24 00:13:42;;;;;;;7.68;4.50;;;23.00;99.70;;;;;;5032713;28;20021;-74
2022/07/24 00:16:08;;;;;;;6.75;4.72;;;23.10;99.70;;;;;;5032819;28;20048;-74
2022/07/24 00:18:34;;;;;;;6.38;4.32;;;23.00;99.80;;;;;;5032819;28;20396;-74
2022/07/24 00:21:00;;;;;;;8.93;4.70;;;23.00;99.70;;;;;;5032125;28;20042;-74
2022/07/24 00:23:26;;;;;;;7.75;4.30;;;23.00;99.80;;;;;;5032751;28;20029;-74
2022/07/24 00:25:53;;;;;;;9.15;5.30;;;22.90;99.90;;;;;;5032747;28;20032;-74
2022/07/24 00:28:19;;;;;;;7.47;4.88;;;23.00;99.90;;;;;;5034038;28;20502;-74
2022/07/24 00:30:44;;;;;;;8.15;3.97;;;23.00;99.90;;;;;;5036347;28;20026;-74
2022/07/24 00:33:10;;;;;;;9.73;4.68;;;22.90;99.90;;;;;;5036397;28;20026;-74
2022/07/24 00:35:36;;;;;;;7.13;4.63;;;22.80;99.90;;;;;;5036426;28;20037;-74
2022/07/24 00:38:02;;;;;;;6.25;4.70;;;22.80;99.90;;;;;;5036400;28;20380;-74
2022/07/24 00:40:28;;;;;;;7.07;4.50;;;22.80;99.90;;;;;;5036727;28;20029;-74
2022/07/24 00:42:54;;;;;;;8.73;5.00;;;22.80;99.90;;;;;;5036306;28;20056;-74
2022/07/24 00:45:19;;;;;;;9.32;4.63;;;22.80;99.90;;;;;;5036434;28;20043;-74
2022/07/24 00:47:45;;;;;;;8.30;4.70;;;22.80;99.90;;;;;;5036128;28;20036;-74
2022/07/24 00:50:11;;;;;;;7.72;5.00;;;22.90;99.90;;;;;;5035775;28;20040;-73
2022/07/24 00:52:37;;;;;;;13.10;5.10;;;22.70;99.90;;;;;;5035950;28;20068;-74
2022/07/24 00:55:04;;;;;;;10.00;5.00;;;22.70;99.90;;;;;;5035886;28;20041;-74
2022/07/24 00:57:30;;;;;;;9.68;4.70;;;22.70;99.90;;;;;;5036060;28;20590;-74
2022/07/24 00:59:56;;;;;;;6.20;4.53;;;22.70;99.90;;;;;;5036046;28;20030;-74
2022/07/24 01:02:22;;;;;;;7.50;4.75;;;22.70;99.90;;;;;;5035714;28;20032;-74
2022/07/24 01:04:48;;;;;;;7.88;4.72;;;22.60;99.90;;;;;;5035563;28;20029;-74
2022/07/24 01:07:14;;;;;;;6.93;4.55;;;22.60;99.90;;;;;;5035645;28;20100;-74
2022/07/24 01:09:41;;;;;;;6.72;4.43;;;22.60;99.90;;;;;;5035960;28;20048;-74
2022/07/24 01:12:06;;;;;;;7.85;4.60;;;22.60;99.90;;;;;;5035524;28;20035;-74
2022/07/24 01:14:33;;;;;;;7.47;4.93;;;22.80;99.90;;;;;;5035631;28;20037;-74
2022/07/24 01:16:58;;;;;;;7.32;4.65;;;22.80;99.90;;;;;;5036129;28;20099;-74
2022/07/24 01:19:24;;;;;;;7.78;4.60;;;22.60;99.90;;;;;;5035309;28;20053;-74
2022/07/24 01:21:52;;;;;;;6.30;4.32;;;22.60;99.90;;;;;;5035322;28;20060;-74
2022/07/24 01:24:20;;;;;;;7.55;4.85;;;22.70;99.90;;;;;;5035286;28;20025;-74
2022/07/24 01:26:46;;;;;;;8.43;4.22;;;22.70;99.90;;;;;;5035315;28;20068;-74
2022/07/24 01:29:13;;;;;;;8.68;5.05;;;22.60;99.90;;;;;;5035618;28;20026;-74
2022/07/24 01:31:38;;;;;;;6.78;4.57;;;22.40;99.90;;;;;;5035282;28;20104;-74
2022/07/24 01:34:04;;;;;;;8.10;4.90;;;22.40;99.90;;;;;;5034906;28;20109;-74
2022/07/24 01:36:30;;;;;;;7.80;4.35;;;22.40;99.90;;;;;;5034988;28;20029;-73
2022/07/24 01:38:56;;;;;;;6.63;4.78;;;22.40;99.90;;;;;;5034989;28;20091;-74
2022/07/24 01:41:21;;;;;;;5.50;4.05;;;22.20;99.90;;;;;;5034409;28;20030;-74
2022/07/24 01:43:47;;;;;;;6.13;4.32;;;22.20;99.90;;;;;;5035144;28;20033;-74
2022/07/24 01:46:13;;;;;;;9.85;5.97;;;22.30;99.90;;;;;;5033868;28;20029;-74
2022/07/24 01:48:40;;;;;;;7.20;4.90;;;22.10;99.90;;;;;;5034820;28;20025;-73
2022/07/24 01:51:06;;;;;;;8.23;5.35;;;22.20;99.90;;;;;;5034893;28;20064;-74
2022/07/24 01:53:32;;;;;;;8.60;4.97;;;22.10;99.90;;;;;;5034669;28;20049;-74
2022/07/24 01:55:57;;;;;;;10.77;4.75;;;22.20;99.90;;;;;;5034472;28;20108;-74
2022/07/24 01:58:23;;;;;;;6.63;5.13;;;22.10;99.90;;;;;;5035005;28;20037;-74
2022/07/24 02:00:49;;;;;;;8.43;5.13;;;22.10;99.90;;;;;;5034905;28;20037;-74
2022/07/24 02:03:15;;;;;;;7.90;4.78;;;22.10;99.90;;;;;;5034651;28;20034;-74
2022/07/24 02:05:41;;;;;;;7.90;4.70;;;22.00;99.90;;;;;;5034813;28;20365;-74
2022/07/24 02:08:07;;;;;;;9.55;4.97;;;22.00;99.90;;;;;;5034690;28;20111;-74
2022/07/24 02:10:32;;;;;;;8.88;4.82;;;21.90;99.90;;;;;;5034321;28;20029;-74
2022/07/24 02:12:58;;;;;;;7.93;5.20;;;22.00;99.90;;;;;;5034466;28;20026;-74
2022/07/24 02:15:24;;;;;;;7.45;4.78;;;22.20;99.90;;;;;;5034647;28;20467;-73
2022/07/24 02:17:52;;;;;;;5.95;4.20;;;22.20;99.90;;;;;;5034461;28;20037;-74
2022/07/24 02:20:19;;;;;;;7.20;4.72;;;22.20;99.90;;;;;;5034110;28;20099;-74
2022/07/24 02:22:45;;;;;;;7.57;4.57;;;22.10;99.90;;;;;;5034626;28;20112;-74
2022/07/24 02:25:12;;;;;;;9.00;4.68;;;22.20;99.90;;;;;;5034468;28;20507;-74
2022/07/24 02:27:38;;;;;;;9.30;4.82;;;22.00;99.90;;;;;;5034265;28;20109;-73
2022/07/24 02:30:06;;;;;;;6.65;4.88;;;22.10;99.90;;;;;;5033949;28;20100;-74
2022/07/24 02:32:32;;;;;;;9.52;4.55;;;22.00;99.90;;;;;;5033977;28;20030;-74
2022/07/24 02:34:58;;;;;;;7.78;4.35;;;22.00;99.90;;;;;;5034194;28;20053;-74
2022/07/24 02:37:23;;;;;;;10.23;4.75;;;22.00;99.90;;;;;;5034220;28;20076;-74
2022/07/24 02:39:49;;;;;;;9.52;5.68;;;22.20;99.90;;;;;;5034076;28;20033;-74
2022/07/24 02:42:15;;;;;;;7.82;4.70;;;22.20;99.90;;;;;;5034056;28;20041;-74
2022/07/24 02:44:40;;;;;;;7.53;4.38;;;22.10;99.90;;;;;;5034030;28;20147;-73
2022/07/24 02:47:06;;;;;;;6.30;4.05;;;22.20;99.90;;;;;;5033874;28;20365;-74
2022/07/24 02:49:32;;;;;;;6.32;4.30;;;22.30;99.90;;;;;;5033869;28;20487;-74
2022/07/24 02:51:57;;;;;;;6.60;4.40;;;22.20;99.90;;;;;;5033694;28;20032;-74
2022/07/24 02:54:23;;;;;;;6.35;3.88;;;22.10;99.90;;;;;;5033800;28;20096;-74
2022/07/24 02:56:49;;;;;;;7.07;5.20;;;22.00;99.90;;;;;;5033693;28;20144;-74
2022/07/24 02:59:15;;;;;;;9.45;4.88;;;21.80;99.90;;;;;;5033429;28;20104;-74
2022/07/24 03:01:40;;;;;;;7.10;4.80;;;21.80;99.90;;;;;;5033390;28;20391;-72
2022/07/24 03:04:06;;;;;;;6.57;4.43;;;21.90;99.90;;;;;;5015618;28;20034;-72
2022/07/24 03:06:32;;;;;;;7.65;4.38;;;22.00;99.90;;;;;;5007682;28;20590;-71
2022/07/24 03:08:57;;;;;;;7.05;4.57;;;22.00;99.90;;;;;;5008004;28;20212;-72
2022/07/24 03:11:23;;;;;;;8.25;4.80;;;22.10;99.90;;;;;;5007651;28;20056;-72
2022/07/24 03:13:49;;;;;;;5.70;4.15;;;22.10;99.90;;;;;;5007173;28;20034;-72
2022/07/24 03:16:16;;;;;;;6.18;4.03;;;22.00;99.90;;;;;;5007367;28;20084;-72
2022/07/24 03:18:45;;;;;;;7.85;4.65;;;21.70;99.90;;;;;;5005217;28;20298;-72
2022/07/24 03:21:13;;;;;;;11.05;5.20;;;21.80;99.90;;;;;;5005233;28;20042;-71
2022/07/24 03:23:39;;;;;;;6.60;4.55;;;21.90;99.90;;;;;;5006711;28;20380;-71
2022/07/24 03:26:05;;;;;;;6.40;4.40;;;21.90;99.90;;;;;;5008175;28;20036;-71
2022/07/24 03:28:30;;;;;;;5.97;4.38;;;21.60;99.90;;;;;;5007819;28;20405;-72
2022/07/24 03:30:56;;;;;;;7.15;4.60;;;21.70;99.90;;;;;;5007678;28;20049;-71
2022/07/24 03:33:22;;;;;;;9.02;4.28;;;21.60;99.90;;;;;;5008198;28;20033;-72
2022/07/24 03:35:48;;;;;;;7.60;4.53;;;21.70;99.90;;;;;;5007923;28;20503;-72
2022/07/24 03:38:14;;;;;;;7.55;4.28;;;21.70;99.90;;;;;;5007577;28;20092;-71
2022/07/24 03:40:39;;;;;;;6.93;4.38;;;21.70;99.90;;;;;;5007602;28;20548;-72
2022/07/24 03:43:05;;;;;;;7.90;4.97;;;21.60;99.90;;;;;;5007811;28;20030;-72
2022/07/24 03:45:31;;;;;;;6.47;4.47;;;21.70;99.90;;;;;;5007666;28;20068;-72
2022/07/24 03:47:56;;;;;;;7.68;4.88;;;21.70;99.90;;;;;;5007972;28;20104;-72
2022/07/24 03:50:22;;;;;;;7.05;4.32;;;21.50;99.90;;;;;;5008082;28;20030;-71
2022/07/24 03:52:48;;;;;;;9.07;4.93;;;21.60;99.90;;;;;;5007776;28;20389;-72
2022/07/24 03:55:13;;;;;;;6.65;4.75;;;21.80;99.90;;;;;;5008050;28;20383;-72
2022/07/24 03:57:39;;;;;;;9.07;5.22;;;21.80;99.90;;;;;;5006659;28;20030;-72
2022/07/24 04:00:06;;;;;;;6.68;4.40;;;21.50;99.90;;;;;;5004507;28;20030;-72
2022/07/24 04:02:31;;;;;;;6.90;4.38;;;21.50;99.90;;;;;;5004522;28;20045;-72
2022/07/24 04:04:57;;;;;;;9.23;4.65;;;21.60;99.90;;;;;;5008238;28;20472;-72
2022/07/24 04:07:23;;;;;;;7.97;4.68;;;21.30;99.90;;;;;;5008615;28;20472;-72
2022/07/24 04:09:48;;;;;;;6.40;4.30;;;21.50;99.90;;;;;;5008538;28;20025;-72
2022/07/24 04:12:14;;;;;;;8.00;5.05;;;21.70;99.90;;;;;;5008714;28;20384;-72
2022/07/24 04:14:40;;;;;;;6.15;4.53;;;21.70;99.90;;;;;;5007999;28;20038;-72
2022/07/24 04:17:05;;;;;;;7.57;5.25;;;21.60;99.90;;;;;;5008442;28;20041;-72
2022/07/24 04:19:31;;;;;;;5.68;4.35;;;21.50;99.90;;;;;;5008472;28;20025;-71
2022/07/24 04:21:57;;;;;;;7.28;4.43;;;21.50;99.90;;;;;;5008383;28;20407;-71
2022/07/24 04:24:23;;;;;;;7.72;4.80;;;21.60;99.90;;;;;;5008844;28;20030;-71
2022/07/24 04:26:48;;;;;;;7.07;4.97;;;21.70;99.90;;;;;;5008668;28;20079;-71
2022/07/24 04:29:14;;;;;;;8.02;4.95;;;21.60;99.90;;;;;;5008607;28;20112;-71
2022/07/24 04:31:40;;;;;;;8.68;5.45;;;21.50;99.90;;;;;;5008262;28;20029;-72
2022/07/24 04:34:05;;;;;;;7.15;4.50;;;21.60;99.90;;;;;;5008351;28;20688;-72
2022/07/24 04:36:31;;;;;;;6.78;4.78;;;21.70;99.90;;;;;;5008074;28;20483;-72
2022/07/24 04:38:57;;;;;;;7.68;4.55;;;21.70;99.90;;;;;;5008505;28;20018;-72
2022/07/24 04:41:23;;;;;;;8.13;4.68;;;21.70;99.90;;;;;;5007456;28;20411;-72
2022/07/24 04:43:49;;;;;;;7.15;4.25;;;21.90;99.90;;;;;;5007971;28;20065;-72
2022/07/24 04:46:15;;;;;;;5.47;4.10;;;21.90;99.90;;;;;;5007587;28;20301;-72
2022/07/24 04:48:41;;;;;;;5.63;4.07;;;21.70;99.90;;;;;;5007551;28;20021;-72
2022/07/24 04:51:07;;;;;;;5.55;3.95;;;21.80;99.90;;;;;;5008026;28;20032;-71
2022/07/24 04:53:33;;;;;;;8.68;4.40;;;21.80;99.90;;;;;;5007953;28;20041;-71
2022/07/24 04:55:59;;;;;;;7.03;4.78;;;21.80;99.90;;;;;;5007264;28;20030;-72
2022/07/24 04:58:26;;;;;;;8.80;4.47;;;21.90;99.90;;;;;;5007680;28;20038;-72
2022/07/24 05:00:52;;;;;;;7.20;4.28;;;21.90;99.90;;;;;;5007483;28;20111;-72
2022/07/24 05:03:18;;;;;;;8.82;4.93;;;21.90;99.90;;;;;;5007760;28;20026;-72
2022/07/24 05:05:43;;;;;;;7.75;4.15;;;21.60;99.90;;;;;;5007435;28;20369;-72
2022/07/24 05:08:09;;;;;;;7.40;4.40;;;21.60;99.90;;;;;;5007563;28;20034;-72
2022/07/24 05:10:35;;;;;;;8.73;5.32;;;21.70;99.90;;;;;;5007004;28;20125;-71
2022/07/24 05:13:01;;;;;;;7.63;5.05;;;21.80;99.90;;;;;;5007263;28;20084;-72
2022/07/24 05:15:26;;;;;;;8.00;4.90;;;21.80;99.90;;;;;;5007197;28;20034;-72
2022/07/24 05:17:53;;;;;;;6.80;4.63;;;21.80;99.90;;;;;;5007139;28;20033;-73
2022/07/24 05:20:19;;;;;;;6.28;4.50;;;21.90;99.90;;;;;;5007502;28;20399;-72
2022/07/24 05:22:44;;;;;;;6.60;4.78;;;21.90;99.90;;;;;;5007194;28;20469;-72
2022/07/24 05:25:10;;;;;;;7.00;4.40;;;21.90;99.90;;;;;;5006664;28;20133;-72
2022/07/24 05:27:36;;;;;;;7.75;4.40;;;22.00;99.90;;;;;;5007232;28;20034;-72
2022/07/24 05:30:04;;;;;;;9.65;4.78;;;22.00;99.90;;;;;;5007141;28;20038;-72
2022/07/24 05:32:30;;;;;;;7.93;4.75;;;22.10;99.90;;;;;;5006063;28;20357;-71
2022/07/24 05:34:56;;;;;;;6.03;4.22;;;22.20;99.90;;;;;;5007111;28;20607;-72
2022/07/24 05:37:21;;;;;;;6.03;4.80;;;22.10;99.90;;;;;;5006534;28;20047;-72
2022/07/24 05:39:47;;;;;;;7.18;4.82;;;22.10;99.90;;;;;;5006746;28;20369;-72
2022/07/24 05:42:13;;;;;;;7.93;4.75;;;22.10;99.90;;;;;;5007166;28;20508;-72
2022/07/24 05:44:38;;;;;;;7.65;5.07;;;22.20;99.90;;;;;;5007481;28;20022;-72
2022/07/24 05:47:05;;;;;;;7.93;4.65;;;22.20;99.90;;;;;;5009886;28;20423;-72
2022/07/24 05:49:30;;;;;;;7.10;5.07;;;22.20;99.90;;;;;;5009819;28;20033;-72
2022/07/24 05:51:56;;;;;;;5.75;4.15;;;22.20;99.90;;;;;;5009962;28;20380;-72
2022/07/24 05:54:22;;;;;;;9.95;5.38;;;21.90;99.90;;;;;;5010162;28;20025;-72
2022/07/24 05:56:47;;;;;;;7.65;4.95;;;22.10;99.90;;;;;;5010156;28;20034;-72
2022/07/24 05:59:13;;;;;;;8.52;5.15;;;22.20;99.90;;;;;;5010204;28;20034;-72
2022/07/24 06:01:39;;;;;;;7.70;4.50;;;22.30;99.90;;;;;;5009719;28;20121;-72
2022/07/24 06:04:04;;;;;;;7.25;5.07;;;22.50;99.90;;;;;;5009811;28;20029;-72
2022/07/24 06:06:30;;;;;;;8.25;4.90;;;22.60;99.90;;;;;;5009963;28;20038;-72
2022/07/24 06:08:56;;;;;;;6.28;4.53;;;22.40;99.90;;;;;;5009338;28;20083;-72
2022/07/24 06:11:22;;;;;;;7.97;5.00;;;22.40;99.90;;;;;;5010410;28;20084;-74
2022/07/24 06:13:48;;;;;;;6.07;4.35;;;22.50;99.90;;;;;;5009993;28;20022;-73
2022/07/24 06:16:14;;;;;;;7.18;4.22;;;22.60;99.90;;;;;;5010366;28;20100;-73
2022/07/24 06:18:40;;;;;;;8.38;4.80;;;22.70;99.90;;;;;;5010082;28;20026;-73
2022/07/24 06:21:06;;;;;;;12.13;4.93;;;22.80;99.90;;;;;;5009617;28;20042;-73
2022/07/24 06:23:32;;;;;;;6.70;4.28;;;22.90;99.90;;;;;;5009822;28;20104;-74
2022/07/24 06:25:58;;;;;;;6.70;4.80;;;23.00;99.90;;;;;;5009732;28;20632;-74
2022/07/24 06:28:24;;;;;;;7.85;4.47;;;23.00;99.90;;;;;;5010171;28;20036;-73
2022/07/24 06:30:50;;;;;;;7.32;3.88;;;23.00;99.90;;;;;;5009191;28;20041;-74
2022/07/24 06:33:15;;;;;;;8.02;4.68;;;23.00;99.90;;;;;;5006961;28;20108;-73
2022/07/24 06:35:41;;;;;;;7.60;5.00;;;23.00;99.90;;;;;;5007417;28;20041;-73
2022/07/24 06:38:09;;;;;;;7.85;5.15;;;23.00;99.90;;;;;;5009918;28;20041;-74
2022/07/24 06:40:36;;;;;;;6.93;5.25;;;23.00;99.90;;;;;;5010007;28;20030;-73
2022/07/24 06:43:03;;;;;;;6.28;4.70;;;22.90;99.90;;;;;;5010047;28;20109;-74
2022/07/24 06:45:32;;;;;;;6.88;4.95;;;23.00;99.90;;;;;;5010230;28;20109;-73
2022/07/24 06:48:00;;;;;;;7.97;4.93;;;22.90;99.40;;;;;;5010182;28;20353;-73
2022/07/24 06:50:27;;;;;;;7.10;4.95;;;23.10;99.30;;;;;;5009370;28;20115;-74
2022/07/24 06:52:53;;;;;;;6.60;4.28;;;23.30;99.00;;;;;;5009070;28;20084;-73
2022/07/24 06:55:19;;;;;;;6.43;5.03;;;23.50;98.20;;;;;;5009417;28;20042;-73
2022/07/24 06:57:44;;;;;;;8.52;4.68;;;23.70;98.50;;;;;;5009620;28;20125;-74
2022/07/24 07:00:11;;;;;;;7.18;5.05;;;24.00;98.40;;;;;;5009573;28;20069;-74
2022/07/24 07:02:37;;;;;;;6.68;4.55;;;24.10;98.10;;;;;;5009635;28;20029;-74
2022/07/24 07:05:06;;;;;;;9.57;5.50;;;24.20;97.80;;;;;;5009347;28;20018;-74
2022/07/24 07:07:31;;;;;;;7.35;4.68;;;24.30;97.30;;;;;;5009213;28;20472;-74
2022/07/24 07:09:57;;;;;;;7.80;4.88;;;24.50;98.00;;;;;;5009098;28;20112;-74
2022/07/24 07:12:23;;;;;;;8.25;4.82;;;24.50;97.30;;;;;;5009283;28;20076;-73
2022/07/24 07:14:48;;;;;;;7.30;4.60;;;24.70;97.10;;;;;;5009331;28;20040;-73
2022/07/24 07:17:15;;;;;;;9.00;4.63;;;25.10;96.60;;;;;;5009172;28;20037;-74
2022/07/24 07:19:42;;;;;;;6.97;4.53;;;25.40;96.00;;;;;;5009233;28;20055;-73
2022/07/24 07:22:08;;;;;;;6.93;4.50;;;25.40;95.20;;;;;;5009579;28;20125;-74
2022/07/24 07:24:34;;;;;;;7.07;4.72;;;25.60;95.60;;;;;;5009044;28;20030;-74
2022/07/24 07:27:00;;;;;;;6.75;4.72;;;25.80;95.50;;;;;;5009324;28;20026;-74
2022/07/24 07:29:26;;;;;;;7.50;4.25;;;26.10;95.60;;;;;;5009097;28;20045;-73
2022/07/24 07:31:51;;;;;;;11.40;5.40;;;26.80;94.70;;;;;;5009167;28;20108;-74
2022/07/24 07:34:17;;;;;;;5.55;3.80;;;27.50;92.90;;;;;;5008762;28;20061;-74
2022/07/24 07:36:43;;;;;;;9.23;5.18;;;28.30;92.20;;;;;;5008978;28;20061;-73
2022/07/24 07:39:09;;;;;;;7.45;4.38;;;29.30;91.10;;;;;;5007847;28;20435;-73
2022/07/24 07:41:34;;;;;;;5.65;4.55;;;29.40;91.00;;;;;;5008738;28;20061;-73
2022/07/24 07:44:01;;;;;;;7.15;4.82;;;29.60;90.80;;;;;;5009001;28;20052;-74
2022/07/24 07:46:26;;;;;;;7.47;4.60;;;29.60;90.70;;;;;;5009030;28;20033;-74
2022/07/24 07:48:53;;;;;;;5.75;4.53;;;29.90;90.30;;;;;;5008557;28;20080;-74
2022/07/24 07:51:19;;;;;;;7.40;4.70;;;30.30;89.10;;;;;;5008526;28;20026;-74
2022/07/24 07:53:44;;;;;;;12.45;5.57;;;30.00;90.20;;;;;;5008571;28;20044;-74
2022/07/24 07:56:10;;;;;;;6.72;4.72;;;29.70;90.00;;;;;;5008796;28;20038;-73
2022/07/24 07:58:36;;;;;;;9.98;4.45;;;29.70;90.00;;;;;;5008880;28;20606;-74
2022/07/24 08:01:01;;;;;;;13.85;5.38;;;29.50;90.20;;;;;;5008863;28;20030;-74
2022/07/24 08:03:27;;;;;;;7.43;5.30;;;29.20;90.30;;;;;;5007938;28;20433;-73
2022/07/24 08:05:53;;;;;;;6.90;4.65;;;29.40;90.20;;;;;;5005824;28;20044;-74
2022/07/24 08:08:19;;;;;;;7.25;5.13;;;29.10;90.20;;;;;;5006372;28;20081;-74
2022/07/24 08:10:44;;;;;;;7.20;5.25;;;29.00;90.50;;;;;;5008938;28;20030;-73
2022/07/24 08:13:11;;;;;;;6.75;4.82;;;29.50;90.10;;;;;;5008791;28;20026;-73
2022/07/24 08:15:38;;;;;;;6.90;4.07;;;28.80;90.50;;;;;;5009177;28;20500;-74
2022/07/24 08:18:03;;;;;;;13.23;4.78;;;28.50;90.60;;;;;;5008828;28;20368;-74
2022/07/24 08:20:29;;;;;;;5.90;4.18;;;28.40;91.00;;;;;;5008578;28;20049;-74
2022/07/24 08:22:55;;;;;;;16.17;5.10;;;28.30;91.40;;;;;;5009009;28;20026;-74
2022/07/24 08:25:21;;;;;;;10.85;4.70;;;27.80;91.60;;;;;;5008847;28;20026;-73
2022/07/24 08:27:47;;;;;;;7.30;4.82;;;27.70;91.70;;;;;;5008924;28;20022;-74
2022/07/24 08:30:13;;;;;;;6.80;5.28;;;27.60;91.80;;;;;;5008291;28;20092;-73
2022/07/24 08:32:39;;;;;;;20.85;6.45;;;27.30;92.30;;;;;;5008161;28;20542;-74
2022/07/24 08:35:06;;;;;;;9.90;5.35;;;27.70;92.10;;;;;;5008574;28;20068;-74
2022/07/24 08:37:39;;;;;;;6.05;4.57;;;28.00;91.80;;;;;;5008230;28;20029;-74
2022/07/24 08:40:06;;;;;;;7.20;4.68;;;27.90;91.20;;;;;;5008598;28;20461;-74
2022/07/24 08:42:33;;;;;;;7.90;4.90;;;28.20;90.60;;;;;;5008271;28;20109;-73
2022/07/24 08:44:59;;;;;;;5.53;4.28;;;28.00;90.90;;;;;;5008290;28;20029;-73
2022/07/24 08:47:29;;;;;;;6.47;4.75;;;28.20;91.20;;;;;;5008220;28;20522;-74
2022/07/24 08:49:56;;;;;;;6.95;4.72;;;28.20;91.30;;;;;;5010263;28;20053;-74
2022/07/24 08:52:22;;;;;;;6.78;5.13;;;28.10;90.90;;;;;;5011942;28;20044;-73
2022/07/24 08:54:48;;;;;;;6.13;4.32;;;28.30;90.90;;;;;;5009513;28;20037;-73
2022/07/24 08:57:14;;;;;;;6.80;4.93;;;28.40;88.30;;;;;;5009089;28;20074;-74
2022/07/24 08:59:40;;;;;;;6.03;4.90;;;28.40;89.90;;;;;;5008798;28;20160;-74
2022/07/24 09:02:06;;;;;;;5.47;4.05;;;28.40;88.70;;;;;;5009214;28;20550;-74
2022/07/24 09:04:44;;;;;;;5.72;4.10;;;28.10;87.80;;;;;;5009641;28;20464;-74
2022/07/24 09:07:14;;;;;;;29.83;6.03;;;28.40;87.10;;;;;;5012043;28;20021;-74
2022/07/24 09:09:41;;;;;;;6.55;4.75;;;28.90;88.60;;;;;;5011767;28;20117;-74
2022/07/24 09:12:15;;;;;;;6.07;4.72;;;29.00;89.40;;;;;;5011901;28;20049;-73
2022/07/24 09:14:45;;;;;;;8.82;4.95;;;29.00;90.00;;;;;;5010515;28;20392;-74
2022/07/24 09:17:17;;;;;;;10.73;5.45;;;29.00;90.00;;;;;;5011944;28;20029;-74
2022/07/24 09:19:48;;;;;;;6.10;4.38;;;29.00;88.30;;;;;;5011161;28;20036;-74
2022/07/24 09:22:39;;;;;;;6.85;4.30;;;28.90;88.10;;;;;;5011414;28;20053;-74
2022/07/24 09:25:15;;;;;;;7.03;4.70;;;29.30;89.30;;;;;;5011400;28;20064;-74
2022/07/24 09:27:51;;;;;;;7.63;4.70;;;29.50;89.30;;;;;;5011166;28;20032;-74
2022/07/24 09:30:33;;;;;;;6.85;5.20;;;29.70;88.60;;;;;;5011110;28;20091;-75
2022/07/24 09:33:27;;;;;;;8.57;5.32;;;29.70;88.80;;;;;;5011194;28;20029;-74
2022/07/24 09:35:53;;;;;;;7.15;4.85;;;29.20;87.70;;;;;;5011759;28;20054;-74
2022/07/24 09:38:23;;;;;;;6.72;4.93;;;29.30;88.80;;;;;;5011793;28;20029;-74
2022/07/24 09:40:56;;;;;;;7.47;4.95;;;29.90;89.20;;;;;;5011036;28;20128;-74
2022/07/24 09:43:26;;;;;;;;;;;29.70;88.60;;;;;;5011487;28;20476;-74
2022/07/24 09:46:05;;;;;;;6.32;5.05;;;30.10;88.70;;;;;;5011349;28;20371;-75
2022/07/24 09:48:35;;;;;;;6.55;4.63;;;30.20;87.90;;;;;;5011112;28;20036;-74
2022/07/24 09:51:11;;;;;;;6.20;4.88;;;30.30;87.10;;;;;;5010512;28;20038;-74
2022/07/24 09:53:37;;;;;;;6.30;5.07;;;29.80;87.40;;;;;;5010754;28;20030;-75
2022/07/24 09:56:06;;;;;;;7.60;4.82;;;30.00;87.70;;;;;;5010427;28;20034;-74
2022/07/24 09:58:39;;;;;;;7.15;5.10;;;30.50;87.20;;;;;;5011017;28;20034;-75
2022/07/24 10:01:06;;;;;;;7.07;5.30;;;30.10;87.10;;;;;;5010047;28;20040;-74
2022/07/24 10:03:35;;;;;;;9.43;5.10;;;30.00;86.40;;;;;;5010781;28;20030;-73
2022/07/24 10:06:04;;;;;;;7.43;5.28;;;30.50;86.60;;;;;;5010694;28;20034;-74
2022/07/24 10:08:31;;;;;;;6.93;4.65;;;30.80;85.90;;;;;;5010302;28;20030;-74
2022/07/24 10:10:57;;;;;;;7.45;5.38;;;30.60;86.20;;;;;;5010313;28;20033;-74
2022/07/24 10:13:29;;;;;;;7.32;5.00;;;30.90;86.00;;;;;;5009925;28;20033;-74
2022/07/24 10:16:13;;;;;;;9.85;4.88;;;30.80;85.00;;;;;;5010285;28;20033;-74
2022/07/24 10:18:52;;;;;;;7.95;4.28;;;31.00;84.50;;;;;;5010200;28;20026;-74
2022/07/24 10:21:18;;;;;;;6.38;4.72;;;30.70;85.50;;;;;;5009862;28;20458;-74
2022/07/24 10:24:03;;;;;;;6.35;5.18;;;30.80;83.60;;;;;;5009857;28;20026;-74
2022/07/24 10:26:40;;;;;;;7.18;5.20;;;30.80;84.60;;;;;;5009912;28;20061;-75
2022/07/24 10:29:17;;;;;;;5.63;4.88;;;31.10;83.90;;;;;;5010095;28;20026;-74
2022/07/24 10:31:58;;;;;;;8.93;5.07;;;31.40;83.20;;;;;;5010255;28;20025;-75
2022/07/24 10:34:23;;;;;;;8.15;4.78;;;31.80;83.50;;;;;;5010474;28;20091;-75
2022/07/24 10:37:11;;;;;;;8.10;4.88;;;31.70;82.40;;;;;;5009874;28;20044;-75
2022/07/24 10:39:56;;;;;;;6.53;4.90;;;31.90;83.30;;;;;;5009803;28;20606;-74
2022/07/24 10:42:22;;;;;;;6.20;4.50;;;32.00;82.40;;;;;;5010113;28;20068;-74
2022/07/24 10:45:17;;;;;;;6.70;4.25;;;32.30;81.40;;;;;;5010357;28;20022;-75
2022/07/24 10:47:43;;;;;;;6.63;4.95;;;32.20;81.30;;;;;;5009999;28;20457;-75
2022/07/24 10:50:09;;;;;;;10.25;4.70;;;32.30;81.60;;;;;;5009449;28;20026;-74
2022/07/24 10:52:37;;;;;;;9.02;4.93;;;32.60;81.80;;;;;;5010037;28;20033;-74
2022/07/24 10:55:27;;;;;;;7.88;4.40;;;32.70;81.10;;;;;;5010021;28;20029;-74
2022/07/24 10:57:56;;;;;;;6.25;4.43;;;32.50;80.00;;;;;;5009754;28;20057;-75
2022/07/24 11:00:25;;;;;;;31.35;5.55;;;32.50;80.20;;;;;;5009400;28;20033;-74
2022/07/24 11:02:56;;;;;;;5.93;4.43;;;32.80;79.90;;;;;;5009653;28;20037;-74
2022/07/24 11:05:27;;;;;;;6.05;4.60;;;32.90;80.10;;;;;;5009393;28;20091;-74
2022/07/24 11:08:11;;;;;;;6.18;4.40;;;32.70;79.00;;;;;;5009371;28;20555;-74
2022/07/24 11:10:54;;;;;;;8.55;4.85;;;33.00;79.80;;;;;;5009386;28;20088;-74
2022/07/24 11:13:32;;;;;;;8.00;4.45;;;32.90;78.50;;;;;;5009189;28;20109;-75
2022/07/24 11:16:15;;;;;;;8.15;4.88;;;33.10;77.90;;;;;;5009165;28;20030;-74
2022/07/24 11:18:47;;;;;;;7.95;4.20;;;33.30;78.60;;;;;;5009464;28;20060;-74
2022/07/24 11:21:27;;;;;;;8.00;4.82;;;33.40;78.80;;;;;;5009266;28;20053;-75
2022/07/24 11:24:20;;;;;;;6.25;4.85;;;33.50;78.30;;;;;;5009429;28;20046;-74
2022/07/24 11:26:54;;;;;;;10.65;5.32;;;33.60;77.50;;;;;;5009175;28;20026;-75
2022/07/24 11:29:26;;;;;;;7.38;4.38;;;33.40;76.70;;;;;;5009247;28;20034;-75
2022/07/24 11:32:01;;;;;;;7.70;4.63;;;33.30;76.80;;;;;;5009141;28;20452;-75
2022/07/24 11:34:29;;;;;;;9.55;4.65;;;33.70;77.50;;;;;;5009381;28;20034;-75
2022/07/24 11:36:56;;;;;;;9.00;5.60;;;33.70;76.90;;;;;;5009073;28;20034;-74
2022/07/24 11:39:34;;;;;;;7.53;4.72;;;33.50;76.90;;;;;;5008985;28;20037;-74
2022/07/24 11:42:02;;;;;;;6.88;4.70;;;33.80;78.10;;;;;;5009123;28;20156;-74
2022/07/24 11:44:33;;;;;;;6.38;4.75;;;34.00;76.60;;;;;;5009327;28;20075;-74
2022/07/24 11:47:04;;;;;;;6.03;4.78;;;33.80;77.40;;;;;;5009500;28;20434;-75
2022/07/24 11:49:30;;;;;;;7.60;5.32;;;33.90;76.00;;;;;;5009040;28;20032;-75
2022/07/24 11:51:56;;;;;;;6.47;5.00;;;34.30;77.80;;;;;;5009061;28;20034;-74
2022/07/24 11:54:27;;;;;;;6.65;5.45;;;34.40;75.90;;;;;;5009309;28;20087;-75
2022/07/24 11:56:54;;;;;;;8.93;5.20;;;34.40;75.40;;;;;;5008557;28;20034;-75
2022/07/24 11:59:24;;;;;;;6.95;5.53;;;34.60;76.00;;;;;;5008668;28;20109;-74
2022/07/24 12:01:50;;;;;;;9.75;5.55;;;34.90;75.70;;;;;;5008725;28;20030;-74
2022/07/24 12:04:21;;;;;;;9.00;5.93;;;35.00;76.50;;;;;;5008773;28;20029;-75
2022/07/24 12:06:47;;;;;;;6.07;5.00;;;35.10;76.50;;;;;;5008402;28;20033;-74
2022/07/24 12:09:12;;;;;;;61.75;7.43;;;34.70;75.60;;;;;;5008350;28;20114;-75
2022/07/24 12:11:38;;;;;;;63.30;9.20;;;34.60;76.50;;;;;;5008502;28;20104;-74
2022/07/24 12:14:19;;;;;;;48.80;7.90;;;35.10;76.50;;;;;;5008652;28;20495;-74
2022/07/24 12:16:52;;;;;;;7.63;5.28;;;35.30;75.30;;;;;;5008584;28;20033;-74
2022/07/24 12:19:26;;;;;;;9.48;5.47;;;35.60;76.30;;;;;;5008559;28;20029;-74
2022/07/24 12:21:53;;;;;;;10.43;6.07;;;35.50;74.00;;;;;;5008240;28;20042;-74
2022/07/24 12:24:20;;;;;;;9.80;5.85;;;34.70;75.40;;;;;;5009926;28;20502;-74
2022/07/24 12:26:52;;;;;;;9.40;5.78;;;35.00;75.00;;;;;;5012545;28;20022;-74
2022/07/24 12:29:19;;;;;;;11.68;6.68;;;35.30;74.30;;;;;;5012427;28;20504;-74
2022/07/24 12:31:44;;;;;;;9.50;6.03;;;35.60;75.00;;;;;;5012847;28;20128;-74
2022/07/24 12:34:11;;;;;;;8.63;6.38;;;35.80;73.70;;;;;;5012666;28;20105;-74
2022/07/24 12:36:37;;;;;;;8.65;5.68;;;36.00;73.30;;;;;;5012248;28;20037;-74
2022/07/24 12:39:04;;;;;;;7.55;5.82;;;36.30;73.70;;;;;;5012363;28;20022;-74
2022/07/24 12:41:31;;;;;;;6.65;5.93;;;36.00;72.80;;;;;;5012398;28;20033;-74
2022/07/24 12:44:04;;;;;;;12.05;6.70;;;35.80;72.90;;;;;;5012384;28;20515;-75
2022/07/24 12:46:34;;;;;;;10.35;5.93;;;36.40;73.70;;;;;;5012682;28;20038;-75
2022/07/24 12:49:03;;;;;;;11.95;5.72;;;36.40;73.20;;;;;;5011780;28;20096;-74